sensor_id;sensor_type;location;lat;lon;timestamp;pressure;altitude;pressure_sealevel;temperature;humidity
8334;BME280;4204;43.004;23.052;2023-05-10T10:30:21;94053.94;;;12.88;100.00
8334;BME280;4204;43.004;23.052;2023-05-10T10:33:06;94052.47;;;12.99;100.00
8334;BME280;4204;43.004;23.052;2023-05-10T10:35:38;94043.69;;;12.99;100.00
8334;BME280;4204;43.004;23.052;2023-05-10T10:38:08;94044.28;;;13.13;100.00
8334;BME280;4204;43.004;23.052;2023-05-10T10:40:35;94035.81;;;13.02;100.00
8334;BME280;4204;43.004;23.052;2023-05-10T10:43:22;94030.44;;;13.20;100.00
8334;BME280;4204;43.004;23.052;2023-05-10T10:46:11;94045.22;;;13.38;100.00
8334;BME280;4204;43.004;23.052;2023-05-10T10:48:40;94039.44;;;13.36;100.00
8334;BME280;4204;43.004;23.052;2023-05-10T10:51:08;94041.44;;;13.39;100.00
8334;BME280;4204;43.004;23.052;2023-05-10T10:53:37;94037.16;;;13.46;100.00
8334;BME280;4204;43.004;23.052;2023-05-10T10:56:07;94051.50;;;13.62;100.00
8334;BME280;4204;43.004;23.052;2023-05-10T10:58:36;94056.00;;;13.50;100.00
8334;BME280;4204;43.004;23.052;2023-05-10T11:01:13;94034.34;;;13.43;100.00
8334;BME280;4204;43.004;23.052;2023-05-10T11:04:16;94035.75;;;13.49;100.00
8334;BME280;4204;43.004;23.052;2023-05-10T11:06:42;94040.97;;;13.37;100.00
8334;BME280;4204;43.004;23.052;2023-05-10T11:09:12;94037.69;;;13.40;100.00
8334;BME280;4204;43.004;23.052;2023-05-10T11:11:50;94034.16;;;13.48;100.00
8334;BME280;4204;43.004;23.052;2023-05-10T11:14:20;94045.97;;;13.47;100.00
8334;BME280;4204;43.004;23.052;2023-05-10T11:16:50;94050.03;;;13.24;100.00
8334;BME280;4204;43.004;23.052;2023-05-10T11:19:18;94042.28;;;13.31;100.00
8334;BME280;4204;43.004;23.052;2023-05-10T11:21:47;94039.59;;;13.31;100.00
8334;BME280;4204;43.004;23.052;2023-05-10T11:24:19;94044.44;;;13.37;100.00
8334;BME280;4204;43.004;23.052;2023-05-10T11:26:49;94040.91;;;13.25;100.00
8334;BME280;4204;43.004;23.052;2023-05-10T11:29:17;94042.78;;;13.24;100.00
8334;BME280;4204;43.004;23.052;2023-05-10T11:31:47;94041.06;;;13.28;100.00
8334;BME280;4204;43.004;23.052;2023-05-10T11:34:26;94046.94;;;13.42;100.00
8334;BME280;4204;43.004;23.052;2023-05-10T11:36:55;94045.50;;;13.45;100.00
8334;BME280;4204;43.004;23.052;2023-05-10T11:39:26;94036.84;;;13.48;100.00
8334;BME280;4204;43.004;23.052;2023-05-10T11:41:55;94042.50;;;13.46;100.00
8334;BME280;4204;43.004;23.052;2023-05-10T11:44:23;94036.63;;;13.32;100.00
8334;BME280;4204;43.004;23.052;2023-05-10T11:46:51;94045.22;;;13.38;100.00
8334;BME280;4204;43.004;23.052;2023-05-10T11:49:20;94041.31;;;13.35;100.00
8334;BME280;4204;43.004;23.052;2023-05-10T11:51:53;94041.38;;;13.27;100.00
8334;BME280;4204;43.004;23.052;2023-05-10T11:54:21;94041.56;;;13.22;100.00
8334;BME280;4204;43.004;23.052;2023-05-10T11:56:49;94042.72;;;13.03;100.00
8334;BME280;4204;43.004;23.052;2023-05-10T11:59:17;94055.31;;;13.03;100.00
8334;BME280;4204;43.004;23.052;2023-05-10T12:01:45;94053.47;;;12.95;100.00
8334;BME280;4204;43.004;23.052;2023-05-10T12:04:13;94045.75;;;12.93;100.00
8334;BME280;4204;43.004;23.052;2023-05-10T12:06:41;94053.16;;;12.88;100.00
8334;BME280;4204;43.004;23.052;2023-05-10T12:09:10;94050.03;;;12.86;100.00
8334;BME280;4204;43.004;23.052;2023-05-10T12:11:39;94049.66;;;12.96;100.00
8334;BME280;4204;43.004;23.052;2023-05-10T12:14:08;94045.28;;;12.91;100.00
8334;BME280;4204;43.004;23.052;2023-05-10T12:16:35;94043.06;;;12.93;100.00
8334;BME280;4204;43.004;23.052;2023-05-10T12:19:03;94029.16;;;12.79;100.00
8334;BME280;4204;43.004;23.052;2023-05-10T12:21:32;94044.78;;;12.98;100.00
8334;BME280;4204;43.004;23.052;2023-05-10T12:24:01;94041.34;;;12.97;100.00
8334;BME280;4204;43.004;23.052;2023-05-10T12:26:31;94039.91;;;13.00;100.00
8334;BME280;4204;43.004;23.052;2023-05-10T12:29:12;94041.94;;;13.12;100.00
8334;BME280;4204;43.004;23.052;2023-05-10T12:31:51;94038.34;;;12.99;100.00
8334;BME280;4204;43.004;23.052;2023-05-10T12:34:30;94039.28;;;13.12;100.00
8334;BME280;4204;43.004;23.052;2023-05-10T12:36:59;94037.75;;;12.93;100.00
8334;BME280;4204;43.004;23.052;2023-05-10T12:39:38;94040.03;;;13.03;100.00
8334;BME280;4204;43.004;23.052;2023-05-10T12:42:08;94025.13;;;13.11;100.00
8334;BME280;4204;43.004;23.052;2023-05-10T12:44:35;94039.44;;;13.07;100.00
8334;BME280;4204;43.004;23.052;2023-05-10T12:47:03;94013.09;;;12.96;100.00
8334;BME280;4204;43.004;23.052;2023-05-10T12:49:31;94024.38;;;12.93;100.00
8334;BME280;4204;43.004;23.052;2023-05-10T12:52:00;94018.91;;;12.90;100.00
8334;BME280;4204;43.004;23.052;2023-05-10T12:54:27;94021.25;;;12.91;100.00
8334;BME280;4204;43.004;23.052;2023-05-10T12:56:55;94017.00;;;12.99;100.00
8334;BME280;4204;43.004;23.052;2023-05-10T12:59:24;94013.88;;;12.97;100.00
8334;BME280;4204;43.004;23.052;2023-05-10T13:01:52;94006.94;;;13.05;100.00
8334;BME280;4204;43.004;23.052;2023-05-10T13:04:20;94009.09;;;13.11;100.00
8334;BME280;4204;43.004;23.052;2023-05-10T13:06:48;94006.38;;;13.20;100.00
8334;BME280;4204;43.004;23.052;2023-05-10T13:09:15;94004.81;;;13.19;100.00
8334;BME280;4204;43.004;23.052;2023-05-10T13:11:43;94000.72;;;13.21;100.00
8334;BME280;4204;43.004;23.052;2023-05-10T13:14:11;94004.03;;;13.18;100.00
8334;BME280;4204;43.004;23.052;2023-05-10T13:16:41;94003.84;;;13.23;100.00
8334;BME280;4204;43.004;23.052;2023-05-10T13:19:08;93997.06;;;13.26;100.00
8334;BME280;4204;43.004;23.052;2023-05-10T13:21:37;93983.38;;;13.27;100.00
8334;BME280;4204;43.004;23.052;2023-05-10T13:24:07;93980.31;;;13.17;100.00
8334;BME280;4204;43.004;23.052;2023-05-10T13:26:35;93982.53;;;13.15;100.00
8334;BME280;4204;43.004;23.052;2023-05-10T13:29:03;93985.25;;;13.06;100.00
8334;BME280;4204;43.004;23.052;2023-05-10T13:31:30;93988.16;;;13.22;100.00
8334;BME280;4204;43.004;23.052;2023-05-10T13:33:59;93979.63;;;13.28;100.00
8334;BME280;4204;43.004;23.052;2023-05-10T13:38:56;93976.09;;;13.16;100.00
8334;BME280;4204;43.004;23.052;2023-05-10T13:41:24;93972.06;;;13.10;100.00
8334;BME280;4204;43.004;23.052;2023-05-10T13:43:51;93972.06;;;13.10;100.00
8334;BME280;4204;43.004;23.052;2023-05-10T13:46:19;93971.22;;;13.18;100.00
8334;BME280;4204;43.004;23.052;2023-05-10T13:48:47;93967.28;;;13.15;100.00
8334;BME280;4204;43.004;23.052;2023-05-10T13:51:15;93975.97;;;13.03;100.00
8334;BME280;4204;43.004;23.052;2023-05-10T13:53:43;93973.78;;;13.06;100.00
8334;BME280;4204;43.004;23.052;2023-05-10T13:56:12;93969.69;;;12.99;100.00
8334;BME280;4204;43.004;23.052;2023-05-10T13:58:40;93966.88;;;13.05;100.00
8334;BME280;4204;43.004;23.052;2023-05-10T14:01:07;93964.75;;;13.19;100.00
8334;BME280;4204;43.004;23.052;2023-05-10T14:03:35;93962.59;;;13.33;100.00
8334;BME280;4204;43.004;23.052;2023-05-10T14:06:03;93960.91;;;13.28;100.00
8334;BME280;4204;43.004;23.052;2023-05-10T14:08:31;93962.28;;;13.34;100.00
8334;BME280;4204;43.004;23.052;2023-05-10T14:10:59;93961.75;;;13.41;100.00
8334;BME280;4204;43.004;23.052;2023-05-10T14:13:28;93953.53;;;13.46;100.00
8334;BME280;4204;43.004;23.052;2023-05-10T14:15:56;93951.78;;;13.29;100.00
8334;BME280;4204;43.004;23.052;2023-05-10T14:18:25;93959.63;;;13.34;100.00
8334;BME280;4204;43.004;23.052;2023-05-10T14:20:53;93952.91;;;13.28;100.00
8334;BME280;4204;43.004;23.052;2023-05-10T14:23:21;93959.41;;;13.19;100.00
8334;BME280;4204;43.004;23.052;2023-05-10T14:25:51;93951.59;;;13.14;100.00
8334;BME280;4204;43.004;23.052;2023-05-10T14:28:19;93970.75;;;13.16;100.00
8334;BME280;4204;43.004;23.052;2023-05-10T14:30:50;93957.66;;;13.23;100.00
8334;BME280;4204;43.004;23.052;2023-05-10T14:33:18;93961.28;;;13.18;100.00
8334;BME280;4204;43.004;23.052;2023-05-10T14:35:46;93957.91;;;13.30;100.00
8334;BME280;4204;43.004;23.052;2023-05-10T14:38:14;93964.63;;;13.15;100.00
8334;BME280;4204;43.004;23.052;2023-05-10T14:42:52;93960.59;;;13.30;100.00
8334;BME280;4204;43.004;23.052;2023-05-10T14:45:20;93969.16;;;13.15;100.00
8334;BME280;4204;43.004;23.052;2023-05-10T14:47:48;93968.00;;;13.24;100.00
8334;BME280;4204;43.004;23.052;2023-05-10T14:50:16;93967.28;;;13.15;100.00
8334;BME280;4204;43.004;23.052;2023-05-10T14:52:45;93969.50;;;13.34;100.00
8334;BME280;4204;43.004;23.052;2023-05-10T14:55:14;93966.50;;;13.35;100.00
8334;BME280;4204;43.004;23.052;2023-05-10T14:57:42;93961.66;;;13.08;100.00
8334;BME280;4204;43.004;23.052;2023-05-10T15:00:13;93964.94;;;13.14;100.00
8334;BME280;4204;43.004;23.052;2023-05-10T15:02:41;93967.81;;;13.09;100.00
8334;BME280;4204;43.004;23.052;2023-05-10T15:05:09;93959.66;;;13.05;100.00
8334;BME280;4204;43.004;23.052;2023-05-10T15:07:37;93966.16;;;13.16;100.00
8334;BME280;4204;43.004;23.052;2023-05-10T15:10:06;93963.19;;;13.18;100.00
8334;BME280;4204;43.004;23.052;2023-05-10T15:12:34;93957.81;;;13.26;100.00
8334;BME280;4204;43.004;23.052;2023-05-10T15:15:01;93950.34;;;13.32;100.00
8334;BME280;4204;43.004;23.052;2023-05-10T15:17:31;93951.16;;;13.32;100.00
8334;BME280;4204;43.004;23.052;2023-05-10T15:19:59;93941.44;;;13.28;100.00
8334;BME280;4204;43.004;23.052;2023-05-10T15:22:28;93943.72;;;13.38;100.00
8334;BME280;4204;43.004;23.052;2023-05-10T15:24:58;93951.16;;;13.32;100.00
8334;BME280;4204;43.004;23.052;2023-05-10T15:27:27;93947.16;;;13.38;100.00
8334;BME280;4204;43.004;23.052;2023-05-10T15:29:55;93936.88;;;13.28;100.00
8334;BME280;4204;43.004;23.052;2023-05-10T15:32:22;93943.66;;;13.26;100.00
8334;BME280;4204;43.004;23.052;2023-05-10T15:34:52;93943.03;;;13.20;100.00
8334;BME280;4204;43.004;23.052;2023-05-10T15:37:19;93959.94;;;13.03;100.00
8334;BME280;4204;43.004;23.052;2023-05-10T15:39:49;93957.13;;;13.00;100.00
8334;BME280;4204;43.004;23.052;2023-05-10T15:42:17;93952.25;;;13.02;100.00
8334;BME280;4204;43.004;23.052;2023-05-10T15:44:44;93944.22;;;13.11;100.00
8334;BME280;4204;43.004;23.052;2023-05-10T15:47:16;93946.44;;;13.09;100.00
8334;BME280;4204;43.004;23.052;2023-05-10T15:52:09;93952.25;;;13.02;100.00
8334;BME280;4204;43.004;23.052;2023-05-10T15:54:37;93954.22;;;12.93;100.00
8334;BME280;4204;43.004;23.052;2023-05-10T15:57:04;93939.47;;;12.87;100.00
8334;BME280;4204;43.004;23.052;2023-05-10T15:59:33;93942.78;;;12.84;100.00
8334;BME280;4204;43.004;23.052;2023-05-10T16:02:01;93943.34;;;12.69;100.00
8334;BME280;4204;43.004;23.052;2023-05-10T16:04:30;93938.47;;;12.71;100.00
8334;BME280;4204;43.004;23.052;2023-05-10T16:06:58;93951.84;;;12.91;100.00
8334;BME280;4204;43.004;23.052;2023-05-10T16:09:27;93944.13;;;12.98;100.00
8334;BME280;4204;43.004;23.052;2023-05-10T16:11:55;93952.31;;;12.93;100.00
8334;BME280;4204;43.004;23.052;2023-05-10T16:14:23;93950.97;;;12.79;100.00
8334;BME280;4204;43.004;23.052;2023-05-10T16:16:51;93946.63;;;12.74;100.00
8334;BME280;4204;43.004;23.052;2023-05-10T16:19:19;93954.94;;;12.73;100.00
8334;BME280;4204;43.004;23.052;2023-05-10T16:21:47;93946.34;;;12.67;100.00
8334;BME280;4204;43.004;23.052;2023-05-10T16:24:14;93956.84;;;12.72;100.00
8334;BME280;4204;43.004;23.052;2023-05-10T16:26:45;93954.91;;;12.81;100.00
8334;BME280;4204;43.004;23.052;2023-05-10T16:29:13;93958.41;;;12.73;100.00
8334;BME280;4204;43.004;23.052;2023-05-10T16:31:41;93952.59;;;12.71;100.00
8334;BME280;4204;43.004;23.052;2023-05-10T16:34:09;93960.63;;;12.63;100.00
8334;BME280;4204;43.004;23.052;2023-05-10T16:36:37;93955.63;;;12.61;100.00
8334;BME280;4204;43.004;23.052;2023-05-10T16:41:33;93957.66;;;12.64;100.00
8334;BME280;4204;43.004;23.052;2023-05-10T16:44:01;93950.81;;;12.46;100.00
8334;BME280;4204;43.004;23.052;2023-05-10T16:46:30;93960.97;;;12.61;100.00
8334;BME280;4204;43.004;23.052;2023-05-10T16:48:58;93951.13;;;12.53;100.00
8334;BME280;4204;43.004;23.052;2023-05-10T16:51:27;93958.22;;;12.49;100.00
8334;BME280;4204;43.004;23.052;2023-05-10T16:53:55;93962.47;;;12.42;100.00
8334;BME280;4204;43.004;23.052;2023-05-10T16:56:22;93955.59;;;12.32;100.00
8334;BME280;4204;43.004;23.052;2023-05-10T16:58:53;93964.88;;;12.26;100.00
8334;BME280;4204;43.004;23.052;2023-05-10T17:01:21;93961.56;;;12.29;100.00
8334;BME280;4204;43.004;23.052;2023-05-10T17:03:49;93959.94;;;12.45;100.00
8334;BME280;4204;43.004;23.052;2023-05-10T17:06:17;93963.22;;;12.51;100.00
8334;BME280;4204;43.004;23.052;2023-05-10T17:08:45;93967.72;;;12.59;100.00
8334;BME280;4204;43.004;23.052;2023-05-10T17:11:13;93970.06;;;12.60;100.00
8334;BME280;4204;43.004;23.052;2023-05-10T17:13:41;93968.78;;;12.66;100.00
8334;BME280;4204;43.004;23.052;2023-05-10T17:16:10;93970.84;;;12.61;100.00
8334;BME280;4204;43.004;23.052;2023-05-10T17:18:39;93975.69;;;12.67;100.00
8334;BME280;4204;43.004;23.052;2023-05-10T17:21:07;93967.19;;;12.74;100.00
8334;BME280;4204;43.004;23.052;2023-05-10T17:23:35;93970.81;;;12.69;100.00
8334;BME280;4204;43.004;23.052;2023-05-10T17:26:03;93973.38;;;12.57;100.00
8334;BME280;4204;43.004;23.052;2023-05-10T17:28:31;93975.94;;;12.54;100.00
8334;BME280;4204;43.004;23.052;2023-05-10T17:30:59;93977.78;;;12.62;100.00
8334;BME280;4204;43.004;23.052;2023-05-10T17:33:29;93975.56;;;12.64;100.00
8334;BME280;4204;43.004;23.052;2023-05-10T17:35:57;93976.53;;;12.59;100.00
8334;BME280;4204;43.004;23.052;2023-05-10T17:38:25;93979.09;;;12.47;100.00
8334;BME280;4204;43.004;23.052;2023-05-10T17:40:53;93979.75;;;12.36;100.00
8334;BME280;4204;43.004;23.052;2023-05-10T17:43:21;93984.00;;;12.37;100.00
8334;BME280;4204;43.004;23.052;2023-05-10T17:45:51;93986.69;;;12.28;100.00
8334;BME280;4204;43.004;23.052;2023-05-10T17:48:19;93993.41;;;12.26;100.00
8334;BME280;4204;43.004;23.052;2023-05-10T17:50:49;93993.91;;;12.19;100.00
8334;BME280;4204;43.004;23.052;2023-05-10T17:53:18;93991.78;;;12.04;100.00
8334;BME280;4204;43.004;23.052;2023-05-10T17:55:45;93986.25;;;12.00;100.00
8334;BME280;4204;43.004;23.052;2023-05-10T17:58:14;94000.22;;;12.14;100.00
8334;BME280;4204;43.004;23.052;2023-05-10T18:00:41;93992.06;;;12.02;100.00
8334;BME280;4204;43.004;23.052;2023-05-10T18:03:10;93991.78;;;12.04;100.00
8334;BME280;4204;43.004;23.052;2023-05-10T18:05:38;93988.13;;;12.08;100.00
8334;BME280;4204;43.004;23.052;2023-05-10T18:08:07;93999.91;;;12.16;100.00
8334;BME280;4204;43.004;23.052;2023-05-10T18:10:36;94003.66;;;12.15;100.00
8334;BME280;4204;43.004;23.052;2023-05-10T18:13:04;94005.03;;;12.21;100.00
8334;BME280;4204;43.004;23.052;2023-05-10T18:15:32;94009.91;;;12.19;100.00
8334;BME280;4204;43.004;23.052;2023-05-10T18:18:01;94013.03;;;12.21;100.00
8334;BME280;4204;43.004;23.052;2023-05-10T18:20:29;94005.22;;;12.16;100.00
8334;BME280;4204;43.004;23.052;2023-05-10T18:22:57;94010.56;;;12.07;100.00
8334;BME280;4204;43.004;23.052;2023-05-10T18:25:27;94008.03;;;12.19;100.00
8334;BME280;4204;43.004;23.052;2023-05-10T18:27:55;94011.81;;;12.10;100.00
8334;BME280;4204;43.004;23.052;2023-05-10T18:30:23;94015.44;;;12.14;100.00
8334;BME280;4204;43.004;23.052;2023-05-10T18:32:51;94019.50;;;12.11;100.00
8334;BME280;4204;43.004;23.052;2023-05-10T18:35:21;94032.38;;;12.01;100.00
8334;BME280;4204;43.004;23.052;2023-05-10T18:37:52;94031.13;;;11.98;100.00
8334;BME280;4204;43.004;23.052;2023-05-10T18:40:21;94030.50;;;12.01;100.00
8334;BME280;4204;43.004;23.052;2023-05-10T18:42:51;94027.97;;;12.05;100.00
8334;BME280;4204;43.004;23.052;2023-05-10T18:45:19;94037.38;;;11.94;100.00
8334;BME280;4204;43.004;23.052;2023-05-10T18:47:47;94043.03;;;11.92;100.00
8334;BME280;4204;43.004;23.052;2023-05-10T18:50:17;94040.22;;;12.06;100.00
8334;BME280;4204;43.004;23.052;2023-05-10T18:52:45;94036.69;;;12.31;100.00
8334;BME280;4204;43.004;23.052;2023-05-10T18:55:13;94033.16;;;12.18;100.00
8334;BME280;4204;43.004;23.052;2023-05-10T18:57:41;94044.09;;;12.26;100.00
8334;BME280;4204;43.004;23.052;2023-05-10T19:00:12;94035.47;;;12.29;100.00
8334;BME280;4204;43.004;23.052;2023-05-10T19:02:40;94042.88;;;12.14;100.00
8334;BME280;4204;43.004;23.052;2023-05-10T19:05:09;94038.16;;;12.11;100.00
8334;BME280;4204;43.004;23.052;2023-05-10T19:07:37;94047.28;;;12.02;100.00
8334;BME280;4204;43.004;23.052;2023-05-10T19:10:10;94035.03;;;12.01;100.00
8334;BME280;4204;43.004;23.052;2023-05-10T19:12:40;94053.22;;;12.07;100.00
8334;BME280;4204;43.004;23.052;2023-05-10T19:15:08;94038.81;;;11.91;100.00
8334;BME280;4204;43.004;23.052;2023-05-10T19:17:38;94049.16;;;12.10;100.00
8334;BME280;4204;43.004;23.052;2023-05-10T19:20:07;94044.16;;;12.00;100.00
8334;BME280;4204;43.004;23.052;2023-05-10T19:22:35;94046.97;;;11.95;100.00
8334;BME280;4204;43.004;23.052;2023-05-10T19:25:03;94044.16;;;12.00;100.00
8334;BME280;4204;43.004;23.052;2023-05-10T19:27:32;94050.28;;;11.83;100.00
8334;BME280;4204;43.004;23.052;2023-05-10T19:30:00;94040.41;;;11.67;100.00
8334;BME280;4204;43.004;23.052;2023-05-10T19:32:28;94027.81;;;11.59;100.00
8334;BME280;4204;43.004;23.052;2023-05-10T19:34:58;94042.09;;;11.63;100.00
8334;BME280;4204;43.004;23.052;2023-05-10T19:37:26;94030.66;;;11.54;100.00
8334;BME280;4204;43.004;23.052;2023-05-10T19:39:57;94033.63;;;11.52;100.00
8334;BME280;4204;43.004;23.052;2023-05-10T19:42:27;94041.81;;;11.73;100.00
8334;BME280;4204;43.004;23.052;2023-05-10T19:44:56;94035.69;;;11.81;100.00
8334;BME280;4204;43.004;23.052;2023-05-10T19:47:25;94036.78;;;11.80;100.00
8334;BME280;4204;43.004;23.052;2023-05-10T19:49:53;94029.56;;;11.97;100.00
8334;BME280;4204;43.004;23.052;2023-05-10T19:52:23;94016.72;;;11.91;100.00
8334;BME280;4204;43.004;23.052;2023-05-10T19:54:52;94020.78;;;11.88;100.00
8334;BME280;4204;43.004;23.052;2023-05-10T19:57:22;94022.03;;;11.82;100.00
8334;BME280;4204;43.004;23.052;2023-05-10T19:59:51;94023.63;;;11.83;100.00
8334;BME280;4204;43.004;23.052;2023-05-10T20:02:20;94013.59;;;11.80;100.00
8334;BME280;4204;43.004;23.052;2023-05-10T20:04:49;94015.47;;;11.80;100.00
8334;BME280;4204;43.004;23.052;2023-05-10T20:07:17;94021.56;;;11.89;100.00
8334;BME280;4204;43.004;23.052;2023-05-10T20:09:46;94020.78;;;11.97;100.00
8334;BME280;4204;43.004;23.052;2023-05-10T20:12:15;94021.56;;;11.89;100.00
8334;BME280;4204;43.004;23.052;2023-05-10T20:14:43;94014.66;;;11.96;100.00
8334;BME280;4204;43.004;23.052;2023-05-10T20:17:13;94015.28;;;12.02;100.00
8334;BME280;4204;43.004;23.052;2023-05-10T20:19:42;94016.06;;;11.94;100.00
8334;BME280;4204;43.004;23.052;2023-05-10T20:22:11;94014.81;;;11.66;100.00
8334;BME280;4204;43.004;23.052;2023-05-10T20:24:40;94012.03;;;11.71;100.00
8334;BME280;4204;43.004;23.052;2023-05-10T20:27:10;94015.63;;;11.75;100.00
8334;BME280;4204;43.004;23.052;2023-05-10T20:29:38;94008.88;;;11.60;100.00
8334;BME280;4204;43.004;23.052;2023-05-10T20:32:07;94008.22;;;11.63;100.00
8334;BME280;4204;43.004;23.052;2023-05-10T20:34:35;94022.00;;;11.65;100.00
8334;BME280;4204;43.004;23.052;2023-05-10T20:37:03;94013.59;;;11.72;100.00
8334;BME280;4204;43.004;23.052;2023-05-10T20:39:31;94025.47;;;11.66;100.00
8334;BME280;4204;43.004;23.052;2023-05-10T20:41:59;94027.66;;;11.64;100.00
8334;BME280;4204;43.004;23.052;2023-05-10T20:44:28;94023.13;;;11.56;100.00
8334;BME280;4204;43.004;23.052;2023-05-10T20:46:56;94023.44;;;11.71;100.00
8334;BME280;4204;43.004;23.052;2023-05-10T20:49:24;94022.69;;;11.71;100.00
8334;BME280;4204;43.004;23.052;2023-05-10T20:51:55;94029.91;;;11.79;100.00
8334;BME280;4204;43.004;23.052;2023-05-10T20:54:25;94023.78;;;11.87;100.00
8334;BME280;4204;43.004;23.052;2023-05-10T20:56:53;94020.63;;;11.76;100.00
8334;BME280;4204;43.004;23.052;2023-05-10T20:59:21;94026.13;;;11.80;100.00
8334;BME280;4204;43.004;23.052;2023-05-10T21:01:50;94025.50;;;11.83;100.00
8334;BME280;4204;43.004;23.052;2023-05-10T21:04:18;94024.25;;;11.89;100.00
8334;BME280;4204;43.004;23.052;2023-05-10T21:06:46;94020.94;;;11.92;100.00
8334;BME280;4204;43.004;23.052;2023-05-10T21:09:14;94023.13;;;11.90;100.00
8334;BME280;4204;43.004;23.052;2023-05-10T21:11:42;94028.31;;;11.86;100.00
8334;BME280;4204;43.004;23.052;2023-05-10T21:14:10;94022.66;;;11.96;100.00
8334;BME280;4204;43.004;23.052;2023-05-10T21:16:38;94020.16;;;11.91;100.00
8334;BME280;4204;43.004;23.052;2023-05-10T21:19:08;94015.78;;;11.87;100.00
8334;BME280;4204;43.004;23.052;2023-05-10T21:21:35;94014.69;;;11.71;100.00
8334;BME280;4204;43.004;23.052;2023-05-10T21:24:04;94015.59;;;11.58;100.00
8334;BME280;4204;43.004;23.052;2023-05-10T21:26:32;94011.84;;;11.50;100.00
8334;BME280;4204;43.004;23.052;2023-05-10T21:28:59;94020.78;;;11.46;100.00
8334;BME280;4204;43.004;23.052;2023-05-10T21:31:27;94013.09;;;11.53;100.00
8334;BME280;4204;43.004;23.052;2023-05-10T21:33:55;94011.69;;;11.55;100.00
8334;BME280;4204;43.004;23.052;2023-05-10T21:36:25;94018.13;;;11.71;100.00
8334;BME280;4204;43.004;23.052;2023-05-10T21:38:53;94017.19;;;11.67;100.00
8334;BME280;4204;43.004;23.052;2023-05-10T21:41:21;94012.78;;;11.63;100.00
8334;BME280;4204;43.004;23.052;2023-05-10T21:43:48;94019.53;;;11.60;100.00
8334;BME280;4204;43.004;23.052;2023-05-10T21:46:16;94012.78;;;11.54;100.00
8334;BME280;4204;43.004;23.052;2023-05-10T21:48:44;94013.25;;;11.65;100.00
8334;BME280;4204;43.004;23.052;2023-05-10T21:51:13;94011.06;;;11.75;100.00
8334;BME280;4204;43.004;23.052;2023-05-10T21:53:42;94012.97;;;11.75;100.00
8334;BME280;4204;43.004;23.052;2023-05-10T21:56:12;94013.41;;;11.60;100.00
8334;BME280;4204;43.004;23.052;2023-05-10T21:58:39;94015.63;;;11.66;100.00
8334;BME280;4204;43.004;23.052;2023-05-10T22:01:07;94009.16;;;11.59;100.00
8334;BME280;4204;43.004;23.052;2023-05-10T22:03:35;94010.88;;;11.55;100.00
8334;BME280;4204;43.004;23.052;2023-05-10T22:06:03;94015.59;;;11.58;100.00
8334;BME280;4204;43.004;23.052;2023-05-10T22:08:31;94021.25;;;11.65;100.00
8334;BME280;4204;43.004;23.052;2023-05-10T22:11:00;94015.28;;;11.42;100.00
8334;BME280;4204;43.004;23.052;2023-05-10T22:13:28;94013.69;;;11.32;100.00
8334;BME280;4204;43.004;23.052;2023-05-10T22:15:56;94005.69;;;11.15;100.00
8334;BME280;4204;43.004;23.052;2023-05-10T22:18:23;94011.47;;;11.17;100.00
8334;BME280;4204;43.004;23.052;2023-05-10T22:20:51;94010.25;;;11.32;100.00
8334;BME280;4204;43.004;23.052;2023-05-10T22:23:19;94010.69;;;11.00;100.00
8334;BME280;4204;43.004;23.052;2023-05-10T22:25:47;94004.75;;;11.11;100.00
8334;BME280;4204;43.004;23.052;2023-05-10T22:28:16;94019.00;;;11.15;100.00
8334;BME280;4204;43.004;23.052;2023-05-10T22:30:43;94008.06;;;11.25;100.00
8334;BME280;4204;43.004;23.052;2023-05-10T22:33:13;94009.97;;;11.42;100.00
8334;BME280;4204;43.004;23.052;2023-05-10T22:35:41;94003.69;;;11.47;100.00
8334;BME280;4204;43.004;23.052;2023-05-10T22:38:08;94009.31;;;11.45;100.00
8334;BME280;4204;43.004;23.052;2023-05-10T22:40:36;94001.66;;;11.44;100.00
8334;BME280;4204;43.004;23.052;2023-05-10T22:43:04;94013.88;;;11.45;100.00
8334;BME280;4204;43.004;23.052;2023-05-10T22:45:33;93996.94;;;11.49;100.00
8334;BME280;4204;43.004;23.052;2023-05-10T22:48:02;94003.22;;;11.45;100.00
8334;BME280;4204;43.004;23.052;2023-05-10T22:50:30;94005.88;;;11.45;100.00
8334;BME280;4204;43.004;23.052;2023-05-10T22:52:58;93996.34;;;11.52;100.00
8334;BME280;4204;43.004;23.052;2023-05-10T22:55:26;93998.69;;;11.54;100.00
8334;BME280;4204;43.004;23.052;2023-05-10T22:57:53;93991.31;;;11.51;100.00
8334;BME280;4204;43.004;23.052;2023-05-10T23:00:22;93981.28;;;11.39;100.00
8334;BME280;4204;43.004;23.052;2023-05-10T23:02:51;93983.94;;;11.48;100.00
8334;BME280;4204;43.004;23.052;2023-05-10T23:05:19;93985.03;;;11.38;100.00
8334;BME280;4204;43.004;23.052;2023-05-10T23:07:47;93983.16;;;11.30;100.00
8334;BME280;4204;43.004;23.052;2023-05-10T23:10:18;93982.06;;;11.31;100.00
8334;BME280;4204;43.004;23.052;2023-05-10T23:12:46;93985.34;;;11.19;100.00
8334;BME280;4204;43.004;23.052;2023-05-10T23:15:14;93989.25;;;11.30;100.00
8334;BME280;4204;43.004;23.052;2023-05-10T23:17:41;93979.72;;;11.21;100.00
8334;BME280;4204;43.004;23.052;2023-05-10T23:20:12;93983.47;;;11.28;100.00
8334;BME280;4204;43.004;23.052;2023-05-10T23:22:39;93987.88;;;11.33;100.00
8334;BME280;4204;43.004;23.052;2023-05-10T23:25:08;93977.50;;;11.40;100.00
8334;BME280;4204;43.004;23.052;2023-05-10T23:27:36;93973.78;;;11.50;100.00
8334;BME280;4204;43.004;23.052;2023-05-10T23:30:05;93974.09;;;11.39;100.00
8334;BME280;4204;43.004;23.052;2023-05-10T23:32:33;93975.97;;;11.39;100.00
8334;BME280;4204;43.004;23.052;2023-05-10T23:35:01;93977.69;;;11.44;100.00
8334;BME280;4204;43.004;23.052;2023-05-10T23:37:30;93967.31;;;11.51;100.00
8334;BME280;4204;43.004;23.052;2023-05-10T23:39:58;93972.69;;;11.42;100.00
8334;BME280;4204;43.004;23.052;2023-05-10T23:42:26;93965.31;;;11.48;100.00
8334;BME280;4204;43.004;23.052;2023-05-10T23:44:54;93963.44;;;11.48;100.00
8334;BME280;4204;43.004;23.052;2023-05-10T23:47:21;93965.63;;;11.37;100.00